Time;durP1;ratioP1;P1;durP2;ratioP2;P2;SDS_P1;SDS_P2;PMS_P1;PMS_P2;Temp;Humidity;BMP_temperature;BMP_pressure;BME280_temperature;BME280_humidity;BME280_pressure;Samples;Min_cycle;Max_cycle;Signal;HPM_P1;HPM_P2
2022/01/30 00:01:05;;;;;;;1.07;0.97;;;;;;;7.57;100.00;97000.41;5111774;27;103139;-57
2022/01/30 00:03:32;;;;;;;2.97;2.10;;;;;;;7.47;100.00;97000.06;5098677;27;101758;-56
2022/01/30 00:05:59;;;;;;;2.73;1.20;;;;;;;7.31;100.00;97008.53;5096755;27;105250;-57
2022/01/30 00:08:25;;;;;;;1.13;1.03;;;;;;;7.25;100.00;97024.47;5097458;27;101855;-57
2022/01/30 00:10:59;;;;;;;1.00;1.00;;;;;;;7.14;100.00;97017.22;5097331;27;104742;-57
2022/01/30 00:13:27;;;;;;;1.37;1.10;;;;;;;7.05;100.00;97015.84;5096702;27;104132;-55
2022/01/30 00:15:55;;;;;;;1.30;1.20;;;;;;;6.97;100.00;97018.72;5097245;27;101849;-57
2022/01/30 00:18:58;;;;;;;1.70;1.10;;;;;;;6.91;100.00;97016.94;5097274;27;105099;-57
2022/01/30 00:21:34;;;;;;;1.67;1.50;;;;;;;6.84;100.00;97010.88;5096585;27;105246;-56
2022/01/30 00:24:06;;;;;;;1.90;1.50;;;;;;;6.81;100.00;97008.69;5097110;27;101820;-57
2022/01/30 00:26:37;;;;;;;2.17;1.33;;;;;;;6.78;100.00;97028.41;5100140;27;105328;-57
2022/01/30 00:29:30;;;;;;;1.30;1.20;;;;;;;6.74;100.00;97010.53;5116022;27;101651;-56
2022/01/30 00:31:57;;;;;;;0.93;0.90;;;;;;;6.69;100.00;97005.06;5097053;27;104799;-57
2022/01/30 00:34:26;;;;;;;1.30;1.20;;;;;;;6.67;100.00;97005.28;5096392;27;105014;-57
2022/01/30 00:36:53;;;;;;;1.33;1.23;;;;;;;6.66;100.00;97000.22;5096641;27;101926;-57
2022/01/30 00:39:22;;;;;;;0.90;0.90;;;;;;;6.67;100.00;97004.47;5096974;27;104804;-55
2022/01/30 00:45:12;;;;;;;1.10;1.10;;;;;;;6.70;100.00;97004.06;5096851;27;101835;-58
2022/01/30 00:47:39;;;;;;;1.33;1.07;;;;;;;6.71;100.00;97026.81;5096873;27;104159;-56
2022/01/30 00:50:09;;;;;;;1.10;1.10;;;;;;;6.72;100.00;97020.50;5099470;27;105570;-57
2022/01/30 00:52:36;;;;;;;0.90;0.90;;;;;;;6.75;100.00;97017.44;5096620;27;105186;-57
2022/01/30 00:55:05;;;;;;;1.03;1.00;;;;;;;6.75;100.00;97028.81;5095979;27;105053;-56
2022/01/30 00:58:02;;;;;;;1.80;1.43;;;;;;;6.73;100.00;97003.63;5096549;27;101986;-57
2022/01/30 01:00:30;;;;;;;1.20;1.20;;;;;;;6.73;100.00;97004.44;5096624;27;104806;-57
2022/01/30 01:02:59;;;;;;;0.90;0.90;;;;;;;6.80;100.00;96993.81;5095896;27;105238;-56
2022/01/30 01:05:29;;;;;;;0.80;0.80;;;;;;;6.82;100.00;97005.00;5115093;27;102194;-56
2022/01/30 01:08:31;;;;;;;0.80;0.80;;;;;;;6.87;100.00;96989.31;5096678;27;104870;-57
2022/01/30 01:11:38;;;;;;;0.80;0.80;;;;;;;6.91;100.00;97017.75;5095744;27;105601;-57
2022/01/30 01:20:48;;;;;;;0.83;0.83;;;;;;;6.92;100.00;97000.88;5099416;27;101711;-56
2022/01/30 01:25:18;;;;;;;0.83;0.83;;;;;;;6.91;100.00;97001.06;5095516;27;105870;-55
2022/01/30 01:27:56;;;;;;;1.00;0.90;;;;;;;6.92;100.00;97002.72;5095883;27;102036;-57
2022/01/30 01:30:23;;;;;;;1.53;1.00;;;;;;;6.90;100.00;97002.94;5096064;27;104771;-57
2022/01/30 01:32:50;;;;;;;1.37;0.90;;;;;;;6.93;100.00;97006.97;5095544;27;102766;-57
2022/01/30 01:35:17;;;;;;;0.90;0.90;;;;;;;6.90;100.00;97013.50;5095925;27;101884;-57
2022/01/30 01:37:52;;;;;;;1.00;1.00;;;;;;;6.88;100.00;97009.44;5098661;27;105188;-56
2022/01/30 01:40:20;;;;;;;0.87;0.87;;;;;;;6.89;100.00;96997.84;5096095;27;101816;-56
2022/01/30 01:43:02;;;;;;;3.17;1.10;;;;;;;6.91;100.00;96987.84;5096012;27;104952;-57
2022/01/30 01:45:34;;;;;;;1.17;1.03;;;;;;;6.91;100.00;96990.50;5095223;27;105013;-57
2022/01/30 01:48:21;;;;;;;1.97;0.90;;;;;;;6.89;100.00;96987.28;5095771;27;101668;-57
2022/01/30 01:50:53;;;;;;;1.57;1.10;;;;;;;6.95;100.00;96997.00;5095705;27;105071;-57
2022/01/30 01:53:24;;;;;;;1.00;1.00;;;;;;;6.92;100.00;96992.16;5095039;27;105312;-56
2022/01/30 01:55:52;;;;;;;0.83;0.80;;;;;;;6.90;100.00;97010.03;5095452;27;102054;-57
2022/01/30 01:58:31;;;;;;;1.60;1.10;;;;;;;6.93;100.00;97010.41;5095714;27;105102;-56
2022/01/30 02:01:23;;;;;;;0.93;0.93;;;;;;;7.00;100.00;97008.56;5115880;27;103783;-56
2022/01/30 02:03:51;;;;;;;1.23;1.10;;;;;;;7.03;100.00;96988.81;5095469;27;103685;-56
2022/01/30 02:06:21;;;;;;;1.60;1.20;;;;;;;6.99;100.00;96987.63;5094654;27;105052;-57
2022/01/30 02:08:54;;;;;;;0.90;0.90;;;;;;;6.98;100.00;96992.09;5095064;27;101792;-55
2022/01/30 02:12:04;;;;;;;1.50;0.90;;;;;;;7.01;100.00;97001.44;5095296;27;105384;-57
2022/01/30 02:14:42;;;;;;;0.80;0.80;;;;;;;7.04;100.00;96990.44;5094356;27;104515;-57
2022/01/30 02:25:37;;;;;;;0.70;0.70;;;;;;;7.04;100.00;96969.28;5094870;27;105113;-56
2022/01/30 02:28:18;;;;;;;0.80;0.80;;;;;;;7.04;100.00;96961.34;5094563;27;105063;-56
2022/01/30 02:30:53;;;;;;;1.27;0.90;;;;;;;7.01;100.00;96949.38;5094967;27;101786;-56
2022/01/30 02:33:22;;;;;;;0.80;0.80;;;;;;;6.97;100.00;96964.03;5094843;27;104830;-57
2022/01/30 02:35:49;;;;;;;0.90;0.90;;;;;;;7.00;100.00;96965.44;5093851;27;105535;-55
2022/01/30 02:38:27;;;;;;;0.93;0.93;;;;;;;6.98;100.00;96957.72;5094589;27;101934;-56
2022/01/30 02:40:57;;;;;;;0.80;0.80;;;;;;;7.00;100.00;96946.94;5113746;27;102730;-56
2022/01/30 02:43:29;;;;;;;0.80;0.80;;;;;;;7.01;100.00;96957.28;5094082;27;104940;-57
2022/01/30 02:46:01;;;;;;;0.70;0.70;;;;;;;7.05;100.00;96955.03;5098104;27;101770;-57
2022/01/30 02:48:34;;;;;;;0.63;0.63;;;;;;;7.04;100.00;96924.34;5094230;27;105035;-57
2022/01/30 02:51:10;;;;;;;1.00;0.80;;;;;;;7.00;100.00;96889.56;5094489;27;101865;-56
2022/01/30 02:53:43;;;;;;;0.70;0.70;;;;;;;6.99;100.00;96872.06;5094496;27;104817;-57
2022/01/30 02:56:10;;;;;;;1.67;0.60;;;;;;;7.03;100.00;96915.56;5093812;27;105813;-56
2022/01/30 02:58:37;;;;;;;1.13;0.60;;;;;;;7.09;100.00;96927.13;5113294;27;101808;-57
2022/01/30 03:01:04;;;;;;;0.50;0.50;;;;;;;7.06;100.00;96924.91;5093801;27;105442;-57
2022/01/30 03:03:31;;;;;;;0.53;0.53;;;;;;;7.11;100.00;96923.25;5093764;27;104991;-57
2022/01/30 03:05:58;;;;;;;1.57;0.60;;;;;;;7.12;100.00;96930.16;5094214;27;102259;-56
2022/01/30 03:08:26;;;;;;;0.57;0.47;;;;;;;7.08;100.00;96915.75;5098235;27;101797;-57
2022/01/30 03:10:55;;;;;;;0.40;0.40;;;;;;;7.11;100.00;96914.50;5094172;27;101891;-56
2022/01/30 03:13:22;;;;;;;0.57;0.57;;;;;;;7.14;100.00;96916.72;5094133;27;104773;-56
2022/01/30 03:15:50;;;;;;;0.50;0.50;;;;;;;7.13;100.00;96915.91;5093420;27;105510;-54
2022/01/30 03:18:18;;;;;;;0.50;0.50;;;;;;;7.11;100.00;96930.38;5094103;27;101893;-56
2022/01/30 03:20:48;;;;;;;1.13;0.40;;;;;;;7.07;100.00;96927.34;5094158;27;103945;-57
2022/01/30 03:23:15;;;;;;;0.40;0.40;;;;;;;7.11;100.00;96927.72;5093424;27;105357;-56
2022/01/30 03:25:42;;;;;;;0.43;0.43;;;;;;;7.14;100.00;96938.69;5094023;27;101915;-56
2022/01/30 03:28:26;;;;;;;0.30;0.30;;;;;;;7.15;100.00;96947.44;5094099;27;103840;-56
2022/01/30 03:31:06;;;;;;;0.67;0.60;;;;;;;7.15;100.00;96955.38;5096753;27;103966;-57
2022/01/30 03:33:46;;;;;;;0.50;0.50;;;;;;;7.20;100.00;96963.47;5093964;27;104106;-57
2022/01/30 03:36:13;;;;;;;0.60;0.60;;;;;;;7.15;100.00;96952.72;5093149;27;105542;-57
2022/01/30 03:38:48;;;;;;;0.40;0.40;;;;;;;7.18;100.00;96939.06;5093040;27;101932;-57
2022/01/30 03:41:16;;;;;;;0.50;0.50;;;;;;;7.14;100.00;96943.19;5093762;27;104547;-55
2022/01/30 03:43:46;;;;;;;0.40;0.40;;;;;;;7.16;100.00;96938.47;5093063;27;105417;-56
2022/01/30 03:46:14;;;;;;;0.50;0.50;;;;;;;7.13;100.00;96939.72;5093667;27;101896;-57
2022/01/30 03:48:43;;;;;;;0.70;0.70;;;;;;;7.12;100.00;96931.97;5093828;27;105627;-55
2022/01/30 03:51:25;;;;;;;0.50;0.50;;;;;;;7.13;100.00;96933.59;5111992;27;102730;-57
2022/01/30 03:53:53;;;;;;;0.73;0.37;;;;;;;7.20;100.00;96948.38;5096971;27;101969;-57
2022/01/30 03:56:20;;;;;;;0.77;0.40;;;;;;;7.16;100.00;96944.59;5092961;27;105469;-57
2022/01/30 03:58:55;;;;;;;0.30;0.30;;;;;;;7.14;100.00;96977.56;5093823;27;101874;-56
2022/01/30 04:01:22;;;;;;;0.40;0.40;;;;;;;7.12;100.00;96939.91;5093143;27;105135;-54
2022/01/30 04:03:49;;;;;;;0.77;0.77;;;;;;;7.11;100.00;96943.59;5092728;27;105732;-57
2022/01/30 04:06:17;;;;;;;0.37;0.37;;;;;;;7.11;100.00;96957.63;5093649;27;101971;-56
2022/01/30 04:08:59;;;;;;;1.40;0.57;;;;;;;7.08;100.00;96934.25;5093529;27;104866;-56
2022/01/30 04:11:42;;;;;;;0.50;0.50;;;;;;;7.06;100.00;96922.25;5092972;27;105543;-57
2022/01/30 04:14:30;;;;;;;0.47;0.47;;;;;;;7.03;100.00;96920.06;5093359;27;102024;-56
2022/01/30 04:17:09;;;;;;;0.60;0.60;;;;;;;6.98;100.00;96922.56;5096329;27;104903;-57
2022/01/30 04:20:05;;;;;;;0.50;0.50;;;;;;;6.97;100.00;96934.94;5110561;27;101855;-57
2022/01/30 04:22:57;;;;;;;0.60;0.43;;;;;;;6.95;100.00;96901.81;5093380;27;105378;-57
2022/01/30 04:25:48;;;;;;;0.53;0.53;;;;;;;6.92;100.00;96902.25;5109556;27;104122;-57
2022/01/30 04:28:38;;;;;;;0.40;0.40;;;;;;;6.88;100.00;96891.28;5081307;27;102231;-56
2022/01/30 04:31:26;;;;;;;0.50;0.50;;;;;;;6.92;100.00;96892.47;5109129;27;102025;-56
2022/01/30 04:34:20;;;;;;;0.60;0.40;;;;;;;6.92;100.00;96902.25;5092735;27;104160;-57
2022/01/30 04:37:02;;;;;;;0.30;0.30;;;;;;;6.89;100.00;96916.72;5092990;27;101903;-57
2022/01/30 04:40:19;;;;;;;1.97;0.60;;;;;;;6.91;100.00;96927.88;5067789;27;102414;-55
2022/01/30 04:53:04;;;;;;;0.30;0.30;;;;;;;6.88;100.00;96924.84;5113593;27;101710;-57
2022/01/30 04:59:15;;;;;;;0.40;0.40;;;;;;;6.90;100.00;96917.50;5113838;27;103977;-57
2022/01/30 05:02:01;;;;;;;0.40;0.40;;;;;;;6.84;100.00;96926.28;5095587;27;101809;-57
2022/01/30 05:04:47;;;;;;;0.40;0.40;;;;;;;6.80;100.00;96943.59;5096290;27;105136;-56
2022/01/30 05:07:37;;;;;;;0.50;0.50;;;;;;;6.81;100.00;96953.97;5099149;27;105433;-57
2022/01/30 05:10:16;;;;;;;0.67;0.43;;;;;;;6.84;100.00;96958.84;5111950;27;102281;-56
2022/01/30 05:13:03;;;;;;;0.47;0.40;;;;;;;6.82;100.00;96960.06;5114404;27;103079;-55
2022/01/30 05:15:53;;;;;;;1.00;0.43;;;;;;;6.81;100.00;96975.09;5065470;27;101856;-57
2022/01/30 05:18:40;;;;;;;0.93;0.50;;;;;;;6.80;100.00;96970.03;5112003;27;102060;-57
2022/01/30 05:21:29;;;;;;;0.73;0.50;;;;;;;6.80;100.00;96983.25;5095377;27;105483;-57
2022/01/30 05:24:03;;;;;;;1.17;0.60;;;;;;;6.74;100.00;96994.66;5095868;27;101907;-57
2022/01/30 05:26:45;;;;;;;0.80;0.80;;;;;;;6.74;100.00;97002.59;5096029;27;104835;-57
2022/01/30 05:29:34;;;;;;;0.60;0.60;;;;;;;6.66;100.00;96965.84;5095247;27;104201;-57
2022/01/30 05:32:13;;;;;;;3.70;1.50;;;;;;;6.55;100.00;96980.53;5114907;27;101756;-55
2022/01/30 05:35:10;;;;;;;0.60;0.60;;;;;;;6.51;100.00;96981.16;5094923;27;105475;-56
2022/01/30 05:38:15;;;;;;;1.00;0.87;;;;;;;6.44;100.00;96970.63;5081217;27;101935;-57
2022/01/30 05:40:57;;;;;;;0.97;0.50;;;;;;;6.47;100.00;96972.84;5114616;27;102142;-56
2022/01/30 05:43:44;;;;;;;0.40;0.40;;;;;;;6.46;100.00;96986.28;5110926;27;102218;-55
2022/01/30 05:46:31;;;;;;;0.40;0.40;;;;;;;6.53;100.00;96998.44;5095661;27;102091;-55
2022/01/30 05:49:19;;;;;;;1.53;0.60;;;;;;;6.46;100.00;96991.56;5080872;27;102033;-57
2022/01/30 05:52:22;;;;;;;0.50;0.50;;;;;;;6.47;100.00;96969.41;5048981;27;101824;-57
2022/01/30 05:55:08;;;;;;;0.77;0.77;;;;;;;6.51;100.00;96982.00;5090790;27;101914;-57
2022/01/30 05:57:44;;;;;;;0.60;0.60;;;;;;;6.47;100.00;96967.56;5098609;27;105120;-56
2022/01/30 06:00:14;;;;;;;0.60;0.60;;;;;;;6.50;100.00;96984.84;5095090;27;101941;-56
2022/01/30 06:02:59;;;;;;;0.50;0.50;;;;;;;6.59;100.00;96991.47;5095225;27;105256;-56
2022/01/30 06:05:27;;;;;;;0.73;0.73;;;;;;;6.50;100.00;97000.69;5094723;27;105976;-56
2022/01/30 06:08:10;;;;;;;0.60;0.60;;;;;;;6.44;100.00;96998.88;5114049;27;101855;-56
2022/01/30 06:10:37;;;;;;;0.70;0.60;;;;;;;6.36;100.00;96997.28;5095187;27;104768;-56
2022/01/30 06:13:10;;;;;;;1.23;0.60;;;;;;;6.36;100.00;96992.00;5094684;27;105544;-57
2022/01/30 06:15:37;;;;;;;0.70;0.70;;;;;;;6.40;100.00;96981.81;5095119;27;101790;-57
2022/01/30 06:18:50;;;;;;;0.63;0.63;;;;;;;6.36;100.00;96993.81;5095204;27;104820;-56
2022/01/30 06:21:37;;;;;;;0.60;0.60;;;;;;;6.42;100.00;96995.63;5083358;27;103048;-56
2022/01/30 06:24:23;;;;;;;0.57;0.57;;;;;;;6.44;100.00;96983.03;5110854;27;102021;-57
2022/01/30 06:27:08;;;;;;;0.50;0.50;;;;;;;6.37;100.00;96983.06;5110303;27;102218;-57
2022/01/30 06:30:04;;;;;;;1.40;0.73;;;;;;;6.34;100.00;96993.22;5094837;27;101779;-57
2022/01/30 06:33:09;;;;;;;0.50;0.50;;;;;;;6.29;100.00;96991.22;5113203;27;103783;-58
2022/01/30 06:36:08;;;;;;;0.50;0.50;;;;;;;6.41;100.00;97013.31;5112199;27;103640;-55
2022/01/30 06:38:51;;;;;;;0.50;0.50;;;;;;;6.35;100.00;97011.53;5094755;27;101836;-57
2022/01/30 06:41:50;;;;;;;0.60;0.60;;;;;;;6.29;100.00;97022.09;5077483;27;102284;-57
2022/01/30 06:44:18;;;;;;;0.50;0.50;;;;;;;6.31;100.00;97035.91;5112601;27;102457;-58
2022/01/30 06:47:15;;;;;;;1.00;0.60;;;;;;;6.33;100.00;97029.38;5041447;27;101835;-55
2022/01/30 06:49:54;;;;;;;0.70;0.70;;;;;;;6.41;100.00;97033.63;5109524;27;102508;-57
2022/01/30 06:52:40;;;;;;;0.60;0.60;;;;;;;6.35;100.00;97045.88;5110269;27;101679;-57
2022/01/30 06:55:43;;;;;;;0.70;0.70;;;;;;;6.36;100.00;97025.53;5112706;27;103618;-57
2022/01/30 06:58:45;;;;;;;0.70;0.70;;;;;;;6.49;100.00;97028.13;5109641;27;102250;-57
2022/01/30 07:01:35;;;;;;;0.70;0.70;;;;;;;6.46;100.00;97033.81;5072496;27;101832;-59
2022/01/30 07:04:09;;;;;;;0.70;0.70;;;;;;;6.48;100.00;97059.00;5109942;27;102281;-59
2022/01/30 07:06:55;;;;;;;0.90;0.90;;;;;;;6.45;100.00;97055.97;5109631;27;102210;-59
2022/01/30 07:09:22;;;;;;;0.60;0.60;;;;;;;6.42;100.00;97051.94;5097755;27;102150;-59
2022/01/30 07:11:49;;;;;;;0.60;0.60;;;;;;;6.38;100.00;97061.28;5112448;27;103388;-59
2022/01/30 07:14:17;;;;;;;0.70;0.70;;;;;;;6.33;100.00;97052.38;5112985;27;101875;-59
2022/01/30 07:16:44;;;;;;;0.70;0.70;;;;;;;6.34;100.00;97046.06;5112871;27;102326;-59
2022/01/30 07:19:13;;;;;;;0.70;0.70;;;;;;;6.35;100.00;97045.03;5112267;27;102767;-59
2022/01/30 07:21:39;;;;;;;1.03;0.90;;;;;;;6.36;100.00;97044.00;5094278;27;101829;-59
2022/01/30 07:24:08;;;;;;;0.80;0.80;;;;;;;6.37;100.00;97040.34;5094013;27;104946;-59
2022/01/30 07:26:34;;;;;;;1.00;1.00;;;;;;;6.39;100.00;97039.13;5093175;27;105884;-59
2022/01/30 07:29:03;;;;;;;0.77;0.77;;;;;;;6.41;100.00;97046.84;5094031;27;101867;-59
2022/01/30 07:31:31;;;;;;;0.80;0.80;;;;;;;6.41;100.00;97063.53;5096670;27;104895;-59
2022/01/30 07:33:58;;;;;;;0.80;0.80;;;;;;;6.45;100.00;97053.34;5093984;27;101858;-59
2022/01/30 07:36:28;;;;;;;0.80;0.80;;;;;;;6.45;100.00;97048.06;5093636;27;105205;-59
2022/01/30 07:38:56;;;;;;;1.77;0.80;;;;;;;6.46;100.00;97052.31;5093256;27;105326;-59
2022/01/30 07:41:33;;;;;;;1.37;0.80;;;;;;;6.44;100.00;97046.44;5093712;27;101957;-59
2022/01/30 07:44:01;;;;;;;0.90;0.90;;;;;;;6.40;100.00;97051.34;5093913;27;105800;-59
2022/01/30 07:46:31;;;;;;;1.10;0.60;;;;;;;6.35;100.00;97053.78;5093029;27;104959;-59
2022/01/30 07:48:59;;;;;;;0.77;0.77;;;;;;;6.34;100.00;97064.56;5093669;27;101961;-59
2022/01/30 07:51:28;;;;;;;0.93;0.80;;;;;;;6.32;100.00;97071.88;5093588;27;105683;-59
2022/01/30 07:53:55;;;;;;;0.70;0.70;;;;;;;6.33;100.00;97076.16;5096449;27;105412;-59
2022/01/30 07:56:23;;;;;;;0.70;0.70;;;;;;;6.36;100.00;97092.38;5093555;27;105096;-59
2022/01/30 07:59:01;;;;;;;0.70;0.70;;;;;;;6.33;100.00;97092.00;5093000;27;104503;-59
2022/01/30 08:01:28;;;;;;;1.03;0.70;;;;;;;6.31;100.00;97086.09;5092963;27;102007;-59
2022/01/30 08:03:55;;;;;;;0.67;0.67;;;;;;;6.25;100.00;97103.59;5093512;27;105024;-59
2022/01/30 08:06:21;;;;;;;0.90;0.90;;;;;;;6.23;100.00;97102.16;5092956;27;105323;-60
2022/01/30 08:08:52;;;;;;;0.97;0.97;;;;;;;6.22;100.00;97096.06;5093424;27;101839;-59
2022/01/30 08:11:21;;;;;;;0.80;0.80;;;;;;;6.24;100.00;97085.28;5093442;27;104124;-59
2022/01/30 08:13:48;;;;;;;0.70;0.70;;;;;;;6.18;100.00;97099.31;5111641;27;103094;-59
2022/01/30 08:16:15;;;;;;;0.93;0.90;;;;;;;6.16;100.00;97102.16;5096687;27;101875;-59
2022/01/30 08:18:48;;;;;;;0.70;0.70;;;;;;;6.19;100.00;97101.78;5092829;27;105496;-59
2022/01/30 08:21:15;;;;;;;0.80;0.80;;;;;;;6.25;100.00;97090.38;5093427;27;101930;-59
2022/01/30 08:23:41;;;;;;;0.67;0.63;;;;;;;6.30;100.00;97108.25;5093066;27;105764;-59
2022/01/30 08:26:10;;;;;;;0.80;0.80;;;;;;;6.35;100.00;97105.78;5096205;27;105358;-59
2022/01/30 08:28:41;;;;;;;1.07;1.00;;;;;;;6.39;100.00;97096.44;5097019;27;101766;-59
2022/01/30 08:31:08;;;;;;;1.17;0.90;;;;;;;6.45;100.00;97095.63;5096861;27;105080;-59
2022/01/30 08:33:35;;;;;;;0.80;0.80;;;;;;;6.55;100.00;97096.00;5096361;27;105805;-59
2022/01/30 08:36:02;;;;;;;1.00;1.00;;;;;;;6.59;100.00;97083.97;5096278;27;101910;-59
2022/01/30 08:38:31;;;;;;;1.60;1.20;;;;;;;6.61;100.00;97074.03;5099537;27;104361;-59
2022/01/30 08:40:58;;;;;;;1.57;1.40;;;;;;;6.69;100.00;97087.81;5096663;27;101997;-59
2022/01/30 08:43:29;;;;;;;1.20;1.10;;;;;;;6.74;100.00;97108.31;5096634;27;103604;-59
2022/01/30 08:45:56;;;;;;;0.80;0.80;;;;;;;6.71;100.00;97074.41;5096214;27;105281;-59
2022/01/30 08:48:26;;;;;;;2.37;1.40;;;;;;;6.71;100.00;97069.09;5096482;27;101876;-59
2022/01/30 08:50:53;;;;;;;1.60;1.30;;;;;;;6.73;100.00;97080.28;5096434;27;105609;-59
2022/01/30 08:53:20;;;;;;;1.77;1.10;;;;;;;6.67;100.00;97078.47;5095683;27;105437;-59
2022/01/30 08:55:47;;;;;;;1.10;1.07;;;;;;;6.53;100.00;97088.28;5096543;27;101850;-59
2022/01/30 08:58:22;;;;;;;3.47;1.03;;;;;;;6.15;100.00;97086.50;5096404;27;105372;-59
2022/01/30 09:00:50;;;;;;;1.00;0.80;;;;;;;5.80;100.00;97082.50;5098357;27;101903;-59
2022/01/30 09:03:17;;;;;;;0.73;0.73;;;;;;;5.74;100.00;97097.28;5096337;27;105169;-59
2022/01/30 09:05:45;;;;;;;0.70;0.70;;;;;;;5.72;100.00;97082.69;5095585;27;105740;-59
2022/01/30 09:08:48;;;;;;;1.20;0.97;;;;;;;5.75;100.00;97082.25;5096306;27;101934;-59
2022/01/30 09:11:16;;;;;;;2.17;1.03;;;;;;;5.76;100.00;97091.81;5096307;27;105543;-59
2022/01/30 09:13:43;;;;;;;1.37;1.20;;;;;;;5.79;100.00;97094.84;5093180;27;105694;-59
2022/01/30 09:16:12;;;;;;;1.27;0.97;;;;;;;5.84;100.00;97091.66;5096096;27;101901;-59
2022/01/30 09:18:43;;;;;;;0.80;0.80;;;;;;;5.91;100.00;97082.72;5095913;27;104992;-59
2022/01/30 09:21:11;;;;;;;1.53;1.00;;;;;;;5.96;100.00;97100.56;5098872;27;105154;-59
2022/01/30 09:23:38;;;;;;;1.17;1.00;;;;;;;6.06;100.00;97116.81;5095716;27;105176;-59
2022/01/30 09:26:05;;;;;;;0.83;0.83;;;;;;;6.22;100.00;97097.91;5114058;27;102763;-59
2022/01/30 09:28:32;;;;;;;2.43;0.97;;;;;;;6.32;100.00;97122.06;5096163;27;101841;-59
2022/01/30 09:30:59;;;;;;;1.20;1.20;;;;;;;6.40;100.00;97108.63;5095842;27;103836;-59
2022/01/30 09:33:28;;;;;;;0.90;0.90;;;;;;;6.49;100.00;97104.75;5095152;27;105786;-59
2022/01/30 09:36:00;;;;;;;1.00;0.90;;;;;;;6.48;100.00;97117.13;5094224;27;101958;-59
2022/01/30 09:38:46;;;;;;;1.03;0.90;;;;;;;6.49;100.00;97131.19;5095607;27;104932;-59
2022/01/30 09:41:15;;;;;;;1.37;1.07;;;;;;;6.52;100.00;97128.09;5095129;27;105406;-59
2022/01/30 09:43:45;;;;;;;1.10;1.10;;;;;;;6.58;100.00;97140.50;5099181;27;101825;-59
2022/01/30 09:46:12;;;;;;;1.47;1.03;;;;;;;6.59;100.00;97139.47;5094944;27;104102;-59
2022/01/30 09:48:43;;;;;;;0.97;0.93;;;;;;;6.64;100.00;97153.69;5095462;27;101836;-59
2022/01/30 09:51:10;;;;;;;1.47;1.37;;;;;;;6.76;100.00;97127.44;5095557;27;105445;-59
2022/01/30 09:53:38;;;;;;;2.17;0.90;;;;;;;6.83;100.00;97152.81;5094693;27;105692;-59
2022/01/30 09:56:06;;;;;;;2.50;1.20;;;;;;;6.86;100.00;97147.13;5114286;27;101832;-59
2022/01/30 09:58:37;;;;;;;1.70;1.13;;;;;;;6.88;100.00;97141.63;5095517;27;105153;-59
2022/01/30 10:01:04;;;;;;;1.20;0.97;;;;;;;6.91;100.00;97175.56;5094289;27;105704;-59
2022/01/30 10:03:32;;;;;;;2.00;1.20;;;;;;;6.96;100.00;97142.22;5095572;27;101880;-59
2022/01/30 10:06:09;;;;;;;1.37;1.20;;;;;;;7.01;100.00;97152.97;5116820;27;102912;-59
2022/01/30 10:08:43;;;;;;;3.50;1.13;;;;;;;7.05;100.00;97143.59;5113891;27;101679;-59
2022/01/30 10:11:41;;;;;;;1.57;1.07;;;;;;;7.07;100.00;97146.03;5114042;27;102611;-59
2022/01/30 10:14:10;;;;;;;1.30;1.00;;;;;;;6.99;100.00;97136.47;5113291;27;102627;-59
2022/01/30 10:16:41;;;;;;;2.50;1.30;;;;;;;6.98;100.00;97142.00;5113787;27;101802;-59
2022/01/30 10:19:11;;;;;;;2.03;1.20;;;;;;;6.93;100.00;97150.53;5094983;27;103703;-59
2022/01/30 10:21:40;;;;;;;2.37;1.10;;;;;;;6.97;100.00;97157.03;5113121;27;103114;-59
2022/01/30 10:24:24;;;;;;;1.73;1.10;;;;;;;7.00;100.00;97158.47;5113651;27;101856;-59
2022/01/30 10:26:52;;;;;;;2.70;1.00;;;;;;;7.00;100.00;97143.41;5113842;27;102589;-59
2022/01/30 10:32:53;;;;;;;3.13;0.93;;;;;;;6.97;100.00;97143.00;5095028;27;105032;-59
2022/01/30 10:35:20;;;;;;;1.37;0.90;;;;;;;7.04;100.00;97141.16;5094160;27;105451;-59
2022/01/30 10:38:20;;;;;;;1.03;1.00;;;;;;;7.13;100.00;97137.25;5094475;27;103607;-59
2022/01/30 10:40:56;;;;;;;2.47;1.40;;;;;;;7.07;100.00;97127.50;5113602;27;102375;-59
2022/01/30 10:43:24;;;;;;;1.53;1.10;;;;;;;7.14;100.00;97134.41;5112908;27;102578;-59
2022/01/30 10:45:50;;;;;;;2.00;1.10;;;;;;;7.20;100.00;97153.91;5094559;27;101991;-59
2022/01/30 10:48:52;;;;;;;1.77;1.30;;;;;;;7.31;100.00;97129.44;5094243;27;105190;-59
2022/01/30 10:51:19;;;;;;;2.67;1.37;;;;;;;7.33;100.00;97143.25;5093961;27;106034;-59
2022/01/30 10:53:50;;;;;;;3.43;1.70;;;;;;;7.30;100.00;97141.84;5098152;27;101912;-59
2022/01/30 10:56:24;;;;;;;1.57;1.00;;;;;;;7.29;100.00;97137.59;5093859;27;105404;-59
2022/01/30 10:59:14;;;;;;;2.87;1.20;;;;;;;7.27;100.00;97159.97;5113355;27;101688;-59
2022/01/30 11:01:42;;;;;;;3.40;1.23;;;;;;;7.36;100.00;97133.06;5094149;27;105073;-59
2022/01/30 11:04:21;;;;;;;4.03;1.40;;;;;;;7.37;100.00;97166.44;5093773;27;105235;-59
2022/01/30 11:06:48;;;;;;;4.63;1.43;;;;;;;7.37;100.00;97152.41;5094600;27;101821;-59
2022/01/30 11:09:25;;;;;;;2.50;1.20;;;;;;;7.32;100.00;97160.16;5094420;27;105180;-59
2022/01/30 11:12:01;;;;;;;2.40;1.00;;;;;;;7.33;100.00;97153.84;5093681;27;105314;-59
2022/01/30 11:14:38;;;;;;;1.93;1.40;;;;;;;7.41;100.00;97156.25;5097541;27;101880;-59
2022/01/30 11:17:07;;;;;;;1.93;1.30;;;;;;;7.32;100.00;97168.88;5093525;27;105903;-59
2022/01/30 11:19:40;;;;;;;2.67;1.13;;;;;;;7.32;100.00;97149.56;5094089;27;101917;-59
2022/01/30 11:22:10;;;;;;;1.40;1.30;;;;;;;7.43;100.00;97140.97;5093943;27;105712;-59
2022/01/30 11:24:45;;;;;;;1.93;0.87;;;;;;;7.42;100.00;97163.16;5093341;27;105259;-59
2022/01/30 11:27:13;;;;;;;2.77;1.10;;;;;;;7.44;100.00;97139.94;5094241;27;101870;-59
2022/01/30 11:29:43;;;;;;;4.57;1.43;;;;;;;7.45;100.00;97152.13;5112835;27;102417;-59
2022/01/30 11:32:10;;;;;;;2.07;1.23;;;;;;;7.39;100.00;97148.53;5093283;27;105368;-59
2022/01/30 11:34:39;;;;;;;2.27;1.20;;;;;;;7.40;100.00;97128.97;5112711;27;101800;-59
2022/01/30 11:37:08;;;;;;;2.40;1.40;;;;;;;7.43;100.00;97127.75;5096605;27;104015;-59
2022/01/30 11:39:45;;;;;;;3.70;1.53;;;;;;;7.45;100.00;97130.97;5112488;27;102132;-59
2022/01/30 11:42:18;;;;;;;2.93;1.30;;;;;;;7.45;100.00;97129.16;5112853;27;102484;-59
2022/01/30 11:44:46;;;;;;;5.77;1.50;;;;;;;7.56;100.00;97114.41;5111737;27;104575;-59
2022/01/30 11:47:24;;;;;;;3.17;1.57;;;;;;;7.57;100.00;97148.63;5112458;27;101828;-59
2022/01/30 11:49:55;;;;;;;2.33;1.17;;;;;;;7.62;100.00;97129.44;5093709;27;104470;-59
2022/01/30 11:52:53;;;;;;;3.57;1.10;;;;;;;7.92;100.00;97133.91;5111818;27;103172;-59
2022/01/30 11:55:50;;;;;;;1.77;0.90;;;;;;;8.00;100.00;97125.69;5093875;27;101819;-59
2022/01/30 11:58:42;;;;;;;1.63;1.20;;;;;;;8.14;100.00;97121.09;5093659;27;105613;-59
2022/01/30 12:01:38;;;;;;;2.60;1.20;;;;;;;8.27;100.00;97118.34;5099681;27;105377;-59
2022/01/30 12:04:16;;;;;;;2.03;1.13;;;;;;;8.68;100.00;97118.56;5097063;27;105188;-59
2022/01/30 12:06:47;;;;;;;1.00;0.73;;;;;;;8.53;100.00;97099.56;5096718;27;105067;-59
2022/01/30 12:09:32;;;;;;;1.60;1.00;;;;;;;8.56;100.00;97099.91;5116338;27;101682;-59
2022/01/30 12:12:07;;;;;;;2.87;1.10;;;;;;;8.79;100.00;97109.88;5097122;27;105624;-59
2022/01/30 12:14:59;;;;;;;2.10;1.00;;;;;;;8.75;100.00;97082.19;5096585;27;105719;-59
2022/01/30 12:17:51;;;;;;;1.33;0.70;;;;;;;8.47;100.00;97087.19;5097035;27;101844;-59
2022/01/30 12:20:19;;;;;;;1.17;0.90;;;;;;;8.51;100.00;97080.41;5097319;27;105177;-59
2022/01/30 12:22:47;;;;;;;1.73;0.90;;;;;;;8.49;100.00;97106.31;5096243;27;105154;-59
2022/01/30 12:25:24;;;;;;;1.23;1.03;;;;;;;8.60;100.00;97094.97;5100457;27;102025;-59
2022/01/30 12:31:30;;;;;;;3.00;0.93;;;;;;;9.10;100.00;97083.19;5096781;27;102192;-59
2022/01/30 12:34:02;;;;;;;3.00;1.10;;;;;;;9.15;100.00;97076.16;5097031;27;105756;-59
2022/01/30 12:36:30;;;;;;;1.07;0.87;;;;;;;9.11;100.00;97129.91;5096044;27;104965;-59
2022/01/30 12:39:21;;;;;;;2.00;0.90;;;;;;;9.17;100.00;97067.97;5096516;27;101994;-59
2022/01/30 12:45:12;;;;;;;1.57;1.00;;;;;;;9.29;100.00;97052.91;5095764;27;105619;-59
2022/01/30 12:47:52;;;;;;;1.60;0.80;;;;;;;9.11;100.00;97058.25;5096573;27;102005;-59